createdAt,value
2023-02-20T00:00:52.424Z,15.95
2023-02-20T00:06:06.162Z,17.00
2023-02-20T00:11:12.807Z,16.92
2023-02-20T00:16:16.420Z,13.73
2023-02-20T00:21:20.192Z,14.05
2023-02-20T00:26:24.908Z,13.90
2023-02-20T00:31:31.521Z,13.63
2023-02-20T00:36:35.354Z,14.43
2023-02-20T00:41:41.760Z,16.50
2023-02-20T00:46:46.632Z,15.50
2023-02-20T00:51:50.417Z,15.02
2023-02-20T00:56:58.821Z,22.17
2023-02-20T01:02:14.143Z,15.90
2023-02-20T01:07:28.153Z,13.45
2023-02-20T01:12:39.518Z,15.43
2023-02-20T01:17:53.524Z,14.25
2023-02-20T01:22:59.231Z,13.75
2023-02-20T01:28:16.227Z,12.73
2023-02-20T01:33:25.004Z,15.43
2023-02-20T01:38:29.716Z,14.10
2023-02-20T01:43:35.442Z,21.08
2023-02-20T01:48:41.024Z,17.70
2023-02-20T01:54:01.520Z,16.95
2023-02-20T01:59:19.716Z,15.07
2023-02-20T02:04:28.020Z,13.45
2023-02-20T02:20:50.343Z,13.13
2023-02-20T02:26:16.859Z,14.57
2023-02-20T02:31:37.415Z,15.80
2023-02-20T02:37:15.065Z,13.70
2023-02-20T02:42:47.456Z,16.33
2023-02-20T02:48:03.288Z,14.45
2023-02-20T02:53:16.301Z,15.73
2023-02-20T02:58:35.192Z,21.80
2023-02-20T03:03:47.277Z,17.40
2023-02-20T03:09:21.706Z,17.05
2023-02-20T03:14:54.297Z,16.95
2023-02-20T03:20:02.802Z,16.95
2023-02-20T03:25:21.315Z,14.77
2023-02-20T03:30:55.084Z,16.60
2023-02-20T03:36:25.100Z,18.75
2023-02-20T03:41:50.945Z,12.93
2023-02-20T03:47:03.640Z,12.45
2023-02-20T03:52:09.304Z,13.13
2023-02-20T03:57:38.485Z,12.65
2023-02-20T04:02:46.652Z,13.57
2023-02-20T04:08:24.000Z,14.45
2023-02-20T04:13:37.894Z,11.88
2023-02-20T04:18:51.549Z,11.48
2023-02-20T04:24:09.851Z,10.27
2023-02-20T04:34:52.285Z,10.82
2023-02-20T04:40:01.673Z,10.60
2023-02-20T04:45:15.334Z,13.15
2023-02-20T04:50:23.824Z,11.32
2023-02-20T04:55:50.023Z,12.02
2023-02-20T05:09:13.752Z,13.40
2023-02-20T05:14:21.005Z,10.60
2023-02-20T05:19:23.005Z,11.05
2023-02-20T05:24:28.751Z,14.15
2023-02-20T05:29:34.755Z,13.93
2023-02-20T05:34:42.342Z,13.73
2023-02-20T05:39:48.880Z,12.70
2023-02-20T05:44:50.985Z,11.75
2023-02-20T05:49:53.835Z,15.52
2023-02-20T05:54:58.324Z,11.63
2023-02-20T06:00:00.345Z,12.07
2023-02-20T06:05:02.951Z,12.90
2023-02-20T06:10:05.713Z,11.02
2023-02-20T06:15:08.336Z,13.38
2023-02-20T06:25:16.982Z,13.77
2023-02-20T06:30:19.154Z,20.05
2023-02-20T06:35:21.298Z,13.75
2023-02-20T06:40:27.415Z,14.65
2023-02-20T06:45:29.552Z,16.95
2023-02-20T06:55:35.840Z,16.50
2023-02-20T07:00:39.112Z,15.50
2023-02-20T07:05:43.852Z,13.10
2023-02-20T07:10:45.827Z,15.52
2023-02-20T07:15:50.866Z,12.95
2023-02-20T07:20:55.214Z,14.18
2023-02-20T07:25:57.510Z,13.68
2023-02-20T07:30:59.792Z,13.95
2023-02-20T07:36:04.309Z,15.20
2023-02-20T07:41:09.326Z,18.77
2023-02-20T07:46:18.373Z,15.57
2023-02-20T07:51:32.652Z,13.80
2023-02-20T07:56:34.658Z,12.23
2023-02-20T08:01:41.544Z,13.25
2023-02-20T08:06:46.828Z,14.40
2023-02-20T08:11:57.434Z,15.65
2023-02-20T08:17:06.083Z,16.88
2023-02-20T08:22:09.128Z,15.75
2023-02-20T08:27:15.120Z,16.90
2023-02-20T08:32:22.386Z,12.98
2023-02-20T08:37:26.565Z,21.58
2023-02-20T08:42:34.892Z,15.82
2023-02-20T08:48:03.796Z,15.00
2023-02-20T08:53:07.256Z,14.15
2023-02-20T08:58:14.520Z,16.27
2023-02-20T09:03:27.736Z,15.80
2023-02-20T09:08:29.806Z,15.10
2023-02-20T09:13:32.096Z,13.52
2023-02-20T09:18:34.356Z,15.38
2023-02-20T09:23:38.727Z,15.65
2023-02-20T09:28:47.129Z,13.23
2023-02-20T09:33:51.549Z,13.25
2023-02-20T09:38:54.132Z,12.98
2023-02-20T09:44:18.197Z,17.50
2023-02-20T09:49:27.903Z,19.38
2023-02-20T09:54:35.142Z,14.85
2023-02-20T09:59:50.728Z,17.52
2023-02-20T10:05:06.179Z,14.60
2023-02-20T10:10:28.229Z,16.10
2023-02-20T10:16:03.494Z,18.50
2023-02-20T10:21:40.552Z,13.93
2023-02-20T10:26:50.212Z,11.07
2023-02-20T10:32:20.563Z,10.65
2023-02-20T10:37:45.427Z,11.63
2023-02-20T10:43:07.409Z,11.10
2023-02-20T10:48:20.590Z,8.48
2023-02-20T10:53:35.677Z,12.98
2023-02-20T10:58:55.186Z,13.60
2023-02-20T11:04:21.512Z,11.85
2023-02-20T11:09:35.297Z,14.48
2023-02-20T11:14:41.622Z,13.93
2023-02-20T11:20:20.867Z,11.60
2023-02-20T11:25:34.966Z,13.27
2023-02-20T11:30:47.188Z,18.83
2023-02-20T11:36:20.355Z,12.43
2023-02-20T11:41:38.347Z,14.82
2023-02-20T11:46:40.872Z,13.63
2023-02-20T11:51:50.105Z,12.70
2023-02-20T11:57:02.009Z,11.38
2023-02-20T12:02:16.260Z,12.60
2023-02-20T12:07:29.251Z,14.63
2023-02-20T12:12:33.840Z,16.95
2023-02-20T12:18:00.406Z,13.27
2023-02-20T12:23:27.327Z,11.32
2023-02-20T12:28:50.898Z,11.80
2023-02-20T12:34:13.122Z,17.70
2023-02-20T12:39:47.009Z,14.38
2023-02-20T12:45:01.299Z,15.70
2023-02-20T12:50:10.639Z,16.65
2023-02-20T12:55:36.031Z,19.60
2023-02-20T13:01:11.323Z,16.40
2023-02-20T13:06:22.883Z,21.40
2023-02-20T13:11:33.434Z,20.50
2023-02-20T13:16:47.660Z,21.42
2023-02-20T13:21:57.599Z,19.45
2023-02-20T13:27:08.135Z,20.15
2023-02-20T13:32:30.855Z,26.35
2023-02-20T13:38:05.999Z,24.55
2023-02-20T13:43:35.913Z,29.92
2023-02-20T13:48:54.551Z,26.30
2023-02-20T13:54:23.657Z,24.95
2023-02-20T13:59:34.512Z,19.55
2023-02-20T14:04:36.982Z,22.80
2023-02-20T14:09:45.333Z,20.98
2023-02-20T14:14:47.815Z,26.52
2023-02-20T14:20:13.336Z,26.25
2023-02-20T14:25:29.969Z,20.80
2023-02-20T14:30:37.586Z,20.42
2023-02-20T14:36:37.497Z,22.63
2023-02-20T14:41:54.117Z,19.98
2023-02-20T14:47:03.947Z,21.42
2023-02-20T14:52:14.070Z,15.95
2023-02-20T14:57:17.599Z,18.90
2023-02-20T15:02:33.264Z,16.80
2023-02-20T15:07:40.512Z,19.40
2023-02-20T15:12:50.099Z,15.20
2023-02-20T15:18:14.849Z,17.38
2023-02-20T15:23:30.906Z,16.83
2023-02-20T15:28:36.059Z,20.23
2023-02-20T15:33:41.549Z,21.52
2023-02-20T15:38:47.949Z,20.17
2023-02-20T15:43:53.169Z,20.45
2023-02-20T15:48:57.473Z,18.30
2023-02-20T15:54:05.012Z,22.00
2023-02-20T15:59:09.335Z,35.00
2023-02-20T16:04:17.237Z,25.15
2023-02-20T16:09:19.274Z,24.08
2023-02-20T16:14:23.822Z,19.05
2023-02-20T16:19:41.796Z,19.65
2023-02-20T16:24:47.701Z,33.13
2023-02-20T16:29:51.022Z,23.17
2023-02-20T16:34:56.016Z,23.40
2023-02-20T16:40:02.290Z,29.00
2023-02-20T16:45:29.856Z,22.17
2023-02-20T16:50:37.352Z,20.70
2023-02-20T16:55:47.387Z,22.65
2023-02-20T17:00:57.458Z,20.92
2023-02-20T17:06:02.080Z,18.83
2023-02-20T17:11:05.635Z,16.95
2023-02-20T17:16:08.611Z,16.88
2023-02-20T17:21:15.340Z,16.42
2023-02-20T17:26:17.861Z,15.98
2023-02-20T17:36:24.602Z,12.68
2023-02-20T17:41:27.248Z,21.35
2023-02-20T17:46:31.914Z,20.95
2023-02-20T17:51:37.631Z,19.92
2023-02-20T17:56:45.431Z,19.92
2023-02-20T18:01:48.937Z,14.27
2023-02-20T18:06:51.186Z,15.88
2023-02-20T18:11:54.176Z,17.95
2023-02-20T18:16:59.588Z,18.92
2023-02-20T18:22:05.948Z,15.57
2023-02-20T18:27:12.635Z,17.80
2023-02-20T18:32:18.295Z,14.82
2023-02-20T18:37:22.151Z,13.38
2023-02-20T18:42:25.834Z,14.90
2023-02-20T18:47:29.394Z,15.93
2023-02-20T18:52:31.451Z,16.92
2023-02-20T19:02:37.026Z,11.25
2023-02-20T19:07:45.388Z,16.83
2023-02-20T19:12:47.714Z,10.85
2023-02-20T19:22:54.029Z,10.68
2023-02-20T19:27:58.855Z,12.48
2023-02-20T19:33:02.693Z,13.00
2023-02-20T19:38:05.438Z,13.15
2023-02-20T19:43:07.649Z,12.02
2023-02-20T19:48:10.053Z,16.20
2023-02-20T19:58:14.151Z,15.20
2023-02-20T20:03:16.121Z,13.55
2023-02-20T20:08:22.107Z,16.95
2023-02-20T20:13:36.538Z,12.45
2023-02-20T20:18:38.962Z,16.88
2023-02-20T20:23:43.224Z,16.02
2023-02-20T20:28:52.703Z,11.82
2023-02-20T20:33:59.287Z,13.60
2023-02-20T20:39:04.338Z,13.75
2023-02-20T20:44:06.528Z,13.93
2023-02-20T20:49:13.878Z,17.08
2023-02-20T20:54:18.072Z,14.13
2023-02-20T20:59:20.224Z,15.63
2023-02-20T21:04:25.892Z,14.90
2023-02-20T21:09:29.267Z,12.90
2023-02-20T21:14:39.932Z,14.88
2023-02-20T21:19:42.316Z,18.67
2023-02-20T21:24:50.564Z,13.15
2023-02-20T21:29:56.548Z,12.02
2023-02-20T21:34:58.685Z,14.70
2023-02-20T21:40:02.230Z,15.95
2023-02-20T21:45:04.888Z,15.18
2023-02-20T21:50:07.723Z,13.50
2023-02-20T21:55:13.244Z,18.52
2023-02-20T22:00:16.737Z,15.50
2023-02-20T22:05:18.860Z,19.48
2023-02-20T22:10:39.301Z,25.33
2023-02-20T22:16:00.270Z,31.13
2023-02-20T22:21:21.274Z,35.38
2023-02-20T22:26:42.862Z,38.30
2023-02-20T22:32:06.126Z,33.57
2023-02-20T22:37:27.140Z,30.52
2023-02-20T22:42:52.106Z,30.90
2023-02-20T22:48:14.913Z,29.95
2023-02-20T22:53:35.392Z,30.00
2023-02-20T22:58:56.190Z,30.67
2023-02-20T23:04:17.346Z,30.08
2023-02-20T23:09:38.001Z,32.78
2023-02-20T23:14:58.694Z,30.33
2023-02-20T23:20:23.878Z,34.42
2023-02-20T23:25:44.591Z,29.38
2023-02-20T23:31:06.988Z,29.20
2023-02-20T23:36:27.873Z,29.98
2023-02-20T23:41:53.271Z,28.95
2023-02-20T23:47:20.989Z,28.85
2023-02-20T23:52:41.565Z,33.35
2023-02-20T23:58:02.164Z,31.08
